sensor_id;sensor_type;location;lat;lon;timestamp;pressure;altitude;pressure_sealevel;temperature;humidity
39141;BME280;24875;48.436;10.298;2023-02-18T00:00:43;97162.78;;;11.65;100.00
39141;BME280;24875;48.436;10.298;2023-02-18T00:03:09;97159.44;;;11.55;100.00
39141;BME280;24875;48.436;10.298;2023-02-18T00:05:36;97156.81;;;11.63;100.00
39141;BME280;24875;48.436;10.298;2023-02-18T00:08:02;97156.81;;;11.63;100.00
39141;BME280;24875;48.436;10.298;2023-02-18T00:10:29;97161.81;;;11.66;100.00
39141;BME280;24875;48.436;10.298;2023-02-18T00:12:56;97163.44;;;11.67;100.00
39141;BME280;24875;48.436;10.298;2023-02-18T00:15:22;97163.78;;;11.72;100.00
39141;BME280;24875;48.436;10.298;2023-02-18T00:17:50;97166.44;;;11.80;100.00
39141;BME280;24875;48.436;10.298;2023-02-18T00:20:16;97173.69;;;11.70;100.00
39141;BME280;24875;48.436;10.298;2023-02-18T00:22:43;97163.47;;;11.75;100.00
39141;BME280;24875;48.436;10.298;2023-02-18T00:25:09;97170.91;;;11.79;100.00
39141;BME280;24875;48.436;10.298;2023-02-18T00:27:36;97166.44;;;11.80;100.00
39141;BME280;24875;48.436;10.298;2023-02-18T00:30:03;97156.38;;;11.75;100.00
39141;BME280;24875;48.436;10.298;2023-02-18T00:32:30;97162.47;;;11.76;100.00
39141;BME280;24875;48.436;10.298;2023-02-18T00:34:57;97162.16;;;11.87;100.00
39141;BME280;24875;48.436;10.298;2023-02-18T00:37:24;97170.44;;;11.84;100.00
39141;BME280;24875;48.436;10.298;2023-02-18T00:39:50;97161.47;;;11.77;100.00
39141;BME280;24875;48.436;10.298;2023-02-18T00:42:17;97160.66;;;11.76;100.00
39141;BME280;24875;48.436;10.298;2023-02-18T00:44:43;97158.84;;;11.77;100.00
39141;BME280;24875;48.436;10.298;2023-02-18T00:47:10;97152.91;;;11.83;100.00
39141;BME280;24875;48.436;10.298;2023-02-18T00:49:37;97153.22;;;11.80;100.00
39141;BME280;24875;48.436;10.298;2023-02-18T00:52:05;97158.53;;;11.88;100.00
39141;BME280;24875;48.436;10.298;2023-02-18T00:54:31;97142.66;;;11.80;100.00
39141;BME280;24875;48.436;10.298;2023-02-18T00:56:57;97140.06;;;11.88;100.00
39141;BME280;24875;48.436;10.298;2023-02-18T00:59:24;97138.41;;;11.87;100.00
39141;BME280;24875;48.436;10.298;2023-02-18T01:01:50;97132.31;;;11.86;100.00
39141;BME280;24875;48.436;10.298;2023-02-18T01:04:17;97134.44;;;11.91;100.00
39141;BME280;24875;48.436;10.298;2023-02-18T01:06:43;97134.44;;;11.91;100.00
39141;BME280;24875;48.436;10.298;2023-02-18T01:09:11;97132.94;;;11.96;100.00
39141;BME280;24875;48.436;10.298;2023-02-18T01:11:38;97135.75;;;11.87;100.00
39141;BME280;24875;48.436;10.298;2023-02-18T01:14:04;97130.75;;;11.68;100.00
39141;BME280;24875;48.436;10.298;2023-02-18T01:16:31;97130.94;;;11.74;100.00
39141;BME280;24875;48.436;10.298;2023-02-18T01:18:57;97129.78;;;11.69;100.00
39141;BME280;24875;48.436;10.298;2023-02-18T01:21:24;97127.50;;;11.74;100.00
39141;BME280;24875;48.436;10.298;2023-02-18T01:23:50;97127.97;;;11.69;100.00
39141;BME280;24875;48.436;10.298;2023-02-18T01:26:18;97126.34;;;11.68;100.00
39141;BME280;24875;48.436;10.298;2023-02-18T01:28:44;97124.50;;;11.69;100.00
39141;BME280;24875;48.436;10.298;2023-02-18T01:31:13;97108.31;;;11.72;100.00
39141;BME280;24875;48.436;10.298;2023-02-18T01:33:40;97102.56;;;11.68;100.00
39141;BME280;24875;48.436;10.298;2023-02-18T01:36:08;97113.13;;;11.68;100.00
39141;BME280;24875;48.436;10.298;2023-02-18T01:38:35;97108.66;;;11.61;100.00
39141;BME280;24875;48.436;10.298;2023-02-18T01:41:02;97103.03;;;11.56;100.00
39141;BME280;24875;48.436;10.298;2023-02-18T01:43:30;97118.53;;;11.59;100.00
39141;BME280;24875;48.436;10.298;2023-02-18T01:46:12;97120.53;;;11.65;100.00
39141;BME280;24875;48.436;10.298;2023-02-18T01:48:41;97115.25;;;11.57;100.00
39141;BME280;24875;48.436;10.298;2023-02-18T01:51:11;97109.63;;;11.60;100.00
39141;BME280;24875;48.436;10.298;2023-02-18T01:53:43;97118.88;;;11.56;100.00
39141;BME280;24875;48.436;10.298;2023-02-18T01:56:17;97120.72;;;11.63;100.00
39141;BME280;24875;48.436;10.298;2023-02-18T01:58:47;97111.78;;;11.64;100.00
39141;BME280;24875;48.436;10.298;2023-02-18T02:01:14;97115.50;;;11.46;100.00
39141;BME280;24875;48.436;10.298;2023-02-18T02:03:41;97110.28;;;11.54;100.00
39141;BME280;24875;48.436;10.298;2023-02-18T02:06:14;97098.72;;;11.55;100.00
39141;BME280;24875;48.436;10.298;2023-02-18T02:08:42;97088.78;;;11.49;100.00
39141;BME280;24875;48.436;10.298;2023-02-18T02:11:18;97100.22;;;11.65;100.00
39141;BME280;24875;48.436;10.298;2023-02-18T02:13:58;97090.78;;;11.47;100.00
39141;BME280;24875;48.436;10.298;2023-02-18T02:16:31;97085.88;;;11.52;100.00
39141;BME280;24875;48.436;10.298;2023-02-18T02:19:11;97087.19;;;11.56;100.00
39141;BME280;24875;48.436;10.298;2023-02-18T02:22:11;97085.53;;;11.55;100.00
39141;BME280;24875;48.436;10.298;2023-02-18T02:25:06;97081.75;;;11.57;100.00
39141;BME280;24875;48.436;10.298;2023-02-18T02:30:52;97069.19;;;11.52;100.00
39141;BME280;24875;48.436;10.298;2023-02-18T02:33:53;97078.94;;;11.59;100.00
39141;BME280;24875;48.436;10.298;2023-02-18T02:36:30;97076.59;;;11.48;100.00
39141;BME280;24875;48.436;10.298;2023-02-18T02:39:07;97080.06;;;11.49;100.00
39141;BME280;24875;48.436;10.298;2023-02-18T02:41:43;97075.59;;;11.49;100.00
39141;BME280;24875;48.436;10.298;2023-02-18T02:44:19;97065.75;;;11.51;100.00
39141;BME280;24875;48.436;10.298;2023-02-18T02:46:48;97065.41;;;11.54;100.00
39141;BME280;24875;48.436;10.298;2023-02-18T02:49:24;97068.69;;;11.48;100.00
39141;BME280;24875;48.436;10.298;2023-02-18T02:51:59;97057.09;;;11.49;100.00
39141;BME280;24875;48.436;10.298;2023-02-18T02:54:29;97060.47;;;11.51;100.00
39141;BME280;24875;48.436;10.298;2023-02-18T02:57:04;97054.19;;;11.52;100.00
39141;BME280;24875;48.436;10.298;2023-02-18T02:59:35;97065.91;;;11.50;100.00
39141;BME280;24875;48.436;10.298;2023-02-18T03:02:16;97059.13;;;11.55;100.00
39141;BME280;24875;48.436;10.298;2023-02-18T03:04:59;97058.16;;;11.56;100.00
39141;BME280;24875;48.436;10.298;2023-02-18T03:07:53;97049.41;;;11.55;100.00
39141;BME280;24875;48.436;10.298;2023-02-18T03:10:35;97050.25;;;11.56;100.00
39141;BME280;24875;48.436;10.298;2023-02-18T03:13:15;97059.91;;;11.48;100.00
39141;BME280;24875;48.436;10.298;2023-02-18T03:15:48;97055.81;;;11.53;100.00
39141;BME280;24875;48.436;10.298;2023-02-18T03:18:22;97050.88;;;11.50;100.00
39141;BME280;24875;48.436;10.298;2023-02-18T03:20:52;97063.06;;;11.43;100.00
39141;BME280;24875;48.436;10.298;2023-02-18T03:23:26;97063.72;;;11.45;100.00
39141;BME280;24875;48.436;10.298;2023-02-18T03:25:54;97060.25;;;11.37;100.00
39141;BME280;24875;48.436;10.298;2023-02-18T03:28:23;97054.81;;;11.38;100.00
39141;BME280;24875;48.436;10.298;2023-02-18T03:30:55;97049.53;;;11.46;100.00
39141;BME280;24875;48.436;10.298;2023-02-18T03:33:26;97055.28;;;11.34;100.00
39141;BME280;24875;48.436;10.298;2023-02-18T03:35:55;97050.50;;;11.29;100.00
39141;BME280;24875;48.436;10.298;2023-02-18T03:38:27;97045.22;;;11.37;100.00
39141;BME280;24875;48.436;10.298;2023-02-18T03:40:56;97045.88;;;11.31;100.00
39141;BME280;24875;48.436;10.298;2023-02-18T03:43:23;97039.91;;;11.21;100.00
39141;BME280;24875;48.436;10.298;2023-02-18T03:45:49;97041.56;;;11.22;100.00
39141;BME280;24875;48.436;10.298;2023-02-18T03:48:16;97038.44;;;11.27;100.00
39141;BME280;24875;48.436;10.298;2023-02-18T03:50:42;97037.25;;;11.21;100.00
39141;BME280;24875;48.436;10.298;2023-02-18T03:53:09;97033.47;;;11.24;100.00
39141;BME280;24875;48.436;10.298;2023-02-18T03:55:37;97032.84;;;11.30;100.00
39141;BME280;24875;48.436;10.298;2023-02-18T03:58:03;97037.94;;;11.23;100.00
39141;BME280;24875;48.436;10.298;2023-02-18T04:00:30;97047.63;;;11.15;100.00
39141;BME280;24875;48.436;10.298;2023-02-18T04:02:56;97034.97;;;11.18;100.00
39141;BME280;24875;48.436;10.298;2023-02-18T04:05:23;97037.75;;;11.17;100.00
39141;BME280;24875;48.436;10.298;2023-02-18T04:07:49;97037.91;;;11.07;100.00
39141;BME280;24875;48.436;10.298;2023-02-18T04:10:17;97040.88;;;11.12;100.00
39141;BME280;24875;48.436;10.298;2023-02-18T04:12:46;97044.69;;;11.18;100.00
39141;BME280;24875;48.436;10.298;2023-02-18T04:15:12;97050.09;;;11.08;100.00
39141;BME280;24875;48.436;10.298;2023-02-18T04:17:39;97051.41;;;11.12;100.00
39141;BME280;24875;48.436;10.298;2023-02-18T04:20:07;97043.72;;;11.27;100.00
39141;BME280;24875;48.436;10.298;2023-02-18T04:22:33;97052.63;;;11.26;100.00
39141;BME280;24875;48.436;10.298;2023-02-18T04:25:00;97051.75;;;11.17;100.00
39141;BME280;24875;48.436;10.298;2023-02-18T04:27:26;97058.38;;;11.21;100.00
39141;BME280;24875;48.436;10.298;2023-02-18T04:29:54;97056.59;;;11.30;100.00
39141;BME280;24875;48.436;10.298;2023-02-18T04:32:20;97042.88;;;11.26;100.00
39141;BME280;24875;48.436;10.298;2023-02-18T04:34:47;97049.00;;;11.27;100.00
39141;BME280;24875;48.436;10.298;2023-02-18T04:37:14;97041.72;;;11.21;100.00
39141;BME280;24875;48.436;10.298;2023-02-18T04:39:40;97048.84;;;11.28;100.00
39141;BME280;24875;48.436;10.298;2023-02-18T04:42:07;97053.31;;;11.28;100.00
39141;BME280;24875;48.436;10.298;2023-02-18T04:44:34;97055.44;;;11.24;100.00
39141;BME280;24875;48.436;10.298;2023-02-18T04:47:02;97052.47;;;11.35;100.00
39141;BME280;24875;48.436;10.298;2023-02-18T04:49:29;97054.28;;;11.27;100.00
39141;BME280;24875;48.436;10.298;2023-02-18T04:51:55;97056.59;;;11.30;100.00
39141;BME280;24875;48.436;10.298;2023-02-18T04:54:22;97046.03;;;11.38;100.00
39141;BME280;24875;48.436;10.298;2023-02-18T04:56:49;97046.38;;;11.27;100.00
39141;BME280;24875;48.436;10.298;2023-02-18T04:59:16;97041.59;;;11.30;100.00
39141;BME280;24875;48.436;10.298;2023-02-18T05:01:42;97033.28;;;11.17;100.00
39141;BME280;24875;48.436;10.298;2023-02-18T05:04:10;97032.03;;;11.29;100.00
39141;BME280;24875;48.436;10.298;2023-02-18T05:06:37;97040.56;;;11.23;100.00
39141;BME280;24875;48.436;10.298;2023-02-18T05:09:04;97040.56;;;11.23;100.00
39141;BME280;24875;48.436;10.298;2023-02-18T05:11:30;97033.97;;;11.19;100.00
39141;BME280;24875;48.436;10.298;2023-02-18T05:13:57;97041.88;;;11.19;100.00
39141;BME280;24875;48.436;10.298;2023-02-18T05:16:23;97032.31;;;11.26;100.00
39141;BME280;24875;48.436;10.298;2023-02-18T05:18:50;97030.81;;;11.16;100.00
39141;BME280;24875;48.436;10.298;2023-02-18T05:21:18;97030.66;;;11.17;100.00
39141;BME280;24875;48.436;10.298;2023-02-18T05:23:44;97037.59;;;11.10;100.00
39141;BME280;24875;48.436;10.298;2023-02-18T05:26:11;97028.97;;;11.08;100.00
39141;BME280;24875;48.436;10.298;2023-02-18T05:28:37;97031.94;;;10.97;100.00
39141;BME280;24875;48.436;10.298;2023-02-18T05:31:04;97041.34;;;11.00;100.00
39141;BME280;24875;48.436;10.298;2023-02-18T05:33:30;97037.50;;;10.94;100.00
39141;BME280;24875;48.436;10.298;2023-02-18T05:35:57;97042.66;;;10.96;100.00
39141;BME280;24875;48.436;10.298;2023-02-18T05:38:25;97051.56;;;11.03;100.00
39141;BME280;24875;48.436;10.298;2023-02-18T05:40:51;97059.56;;;10.86;100.00
39141;BME280;24875;48.436;10.298;2023-02-18T05:43:18;97053.81;;;10.82;100.00
39141;BME280;24875;48.436;10.298;2023-02-18T05:45:44;97059.25;;;10.89;100.00
39141;BME280;24875;48.436;10.298;2023-02-18T05:48:11;97057.44;;;10.89;100.00
39141;BME280;24875;48.436;10.298;2023-02-18T05:50:38;97057.59;;;10.88;100.00
39141;BME280;24875;48.436;10.298;2023-02-18T05:53:04;97061.56;;;10.92;100.00
39141;BME280;24875;48.436;10.298;2023-02-18T05:55:32;97063.75;;;10.96;100.00
39141;BME280;24875;48.436;10.298;2023-02-18T05:58:02;97060.59;;;10.93;100.00
39141;BME280;24875;48.436;10.298;2023-02-18T06:00:28;97069.16;;;10.94;100.00
39141;BME280;24875;48.436;10.298;2023-02-18T06:02:56;97069.81;;;10.89;100.00
39141;BME280;24875;48.436;10.298;2023-02-18T06:05:22;97063.84;;;10.87;100.00
39141;BME280;24875;48.436;10.298;2023-02-18T06:07:49;97066.19;;;10.90;100.00
39141;BME280;24875;48.436;10.298;2023-02-18T06:10:15;97058.59;;;10.94;100.00
39141;BME280;24875;48.436;10.298;2023-02-18T06:12:44;97066.56;;;11.02;100.00
39141;BME280;24875;48.436;10.298;2023-02-18T06:15:10;97061.91;;;10.89;100.00
39141;BME280;24875;48.436;10.298;2023-02-18T06:17:37;97056.28;;;10.84;100.00
39141;BME280;24875;48.436;10.298;2023-02-18T06:20:04;97065.53;;;10.95;100.00
39141;BME280;24875;48.436;10.298;2023-02-18T06:22:31;97062.56;;;10.91;100.00
39141;BME280;24875;48.436;10.298;2023-02-18T06:24:57;97076.44;;;11.00;100.00
39141;BME280;24875;48.436;10.298;2023-02-18T06:27:23;97062.25;;;10.93;100.00
39141;BME280;24875;48.436;10.298;2023-02-18T06:29:51;97071.34;;;10.99;100.00
39141;BME280;24875;48.436;10.298;2023-02-18T06:32:18;97062.94;;;11.03;100.00
39141;BME280;24875;48.436;10.298;2023-02-18T06:34:45;97064.19;;;10.84;100.00
39141;BME280;24875;48.436;10.298;2023-02-18T06:37:11;97059.78;;;10.92;100.00
39141;BME280;24875;48.436;10.298;2023-02-18T06:39:38;97049.41;;;10.98;100.00
39141;BME280;24875;48.436;10.298;2023-02-18T06:42:05;97055.16;;;10.94;100.00
39141;BME280;24875;48.436;10.298;2023-02-18T06:44:31;97049.25;;;10.92;100.00
39141;BME280;24875;48.436;10.298;2023-02-18T06:46:59;97048.94;;;11.03;100.00
39141;BME280;24875;48.436;10.298;2023-02-18T06:49:25;97052.06;;;10.98;100.00
39141;BME280;24875;48.436;10.298;2023-02-18T06:51:52;97048.91;;;10.95;100.00
39141;BME280;24875;48.436;10.298;2023-02-18T06:54:18;97051.06;;;10.99;100.00
39141;BME280;24875;48.436;10.298;2023-02-18T06:56:45;97046.28;;;11.03;100.00
39141;BME280;24875;48.436;10.298;2023-02-18T06:59:12;97052.72;;;11.00;100.00
39141;BME280;24875;48.436;10.298;2023-02-18T07:01:39;97041.16;;;10.93;100.00
39141;BME280;24875;48.436;10.298;2023-02-18T07:04:06;97051.41;;;11.12;100.00
39141;BME280;24875;48.436;10.298;2023-02-18T07:06:33;97050.41;;;11.05;100.00
39141;BME280;24875;48.436;10.298;2023-02-18T07:08:59;97049.91;;;11.02;100.00
39141;BME280;24875;48.436;10.298;2023-02-18T07:11:26;97059.00;;;11.07;100.00
39141;BME280;24875;48.436;10.298;2023-02-18T07:13:53;97056.56;;;11.14;100.00
39141;BME280;24875;48.436;10.298;2023-02-18T07:16:19;97061.84;;;11.22;100.00
39141;BME280;24875;48.436;10.298;2023-02-18T07:18:46;97059.84;;;11.24;100.00
39141;BME280;24875;48.436;10.298;2023-02-18T07:21:13;97064.13;;;11.17;100.00
39141;BME280;24875;48.436;10.298;2023-02-18T07:23:40;97061.00;;;11.21;100.00
39141;BME280;24875;48.436;10.298;2023-02-18T07:26:09;97054.94;;;11.29;100.00
39141;BME280;24875;48.436;10.298;2023-02-18T07:28:36;97062.84;;;11.29;100.00
39141;BME280;24875;48.436;10.298;2023-02-18T07:31:03;97059.09;;;11.39;100.00
39141;BME280;24875;48.436;10.298;2023-02-18T07:33:30;97056.47;;;11.47;100.00
39141;BME280;24875;48.436;10.298;2023-02-18T07:35:58;97058.63;;;11.52;100.00
39141;BME280;24875;48.436;10.298;2023-02-18T07:38:27;97053.06;;;11.55;100.00
39141;BME280;24875;48.436;10.298;2023-02-18T07:40:54;97056.47;;;11.47;100.00
39141;BME280;24875;48.436;10.298;2023-02-18T07:43:21;97051.38;;;11.54;100.00
39141;BME280;24875;48.436;10.298;2023-02-18T07:45:47;97038.97;;;11.46;100.00
39141;BME280;24875;48.436;10.298;2023-02-18T07:48:15;97044.25;;;11.46;100.00
39141;BME280;24875;48.436;10.298;2023-02-18T07:50:43;97049.25;;;11.57;100.00
39141;BME280;24875;48.436;10.298;2023-02-18T07:53:10;97052.72;;;11.57;100.00
39141;BME280;24875;48.436;10.298;2023-02-18T07:55:39;97045.47;;;11.67;100.00
39141;BME280;24875;48.436;10.298;2023-02-18T07:58:16;97044.63;;;11.67;100.00
39141;BME280;24875;48.436;10.298;2023-02-18T08:00:42;97040.31;;;11.58;100.00
39141;BME280;24875;48.436;10.298;2023-02-18T08:03:11;97036.06;;;11.65;100.00
39141;BME280;24875;48.436;10.298;2023-02-18T08:05:38;97031.75;;;11.64;100.00
39141;BME280;24875;48.436;10.298;2023-02-18T08:08:04;97029.44;;;11.53;100.00
39141;BME280;24875;48.436;10.298;2023-02-18T08:10:31;97039.69;;;11.56;100.00
39141;BME280;24875;48.436;10.298;2023-02-18T08:12:59;97026.31;;;11.73;100.00
39141;BME280;24875;48.436;10.298;2023-02-18T08:15:25;97028.94;;;11.65;100.00
39141;BME280;24875;48.436;10.298;2023-02-18T08:17:52;97024.50;;;11.58;100.00
39141;BME280;24875;48.436;10.298;2023-02-18T08:20:18;97029.13;;;11.72;100.00
39141;BME280;24875;48.436;10.298;2023-02-18T08:22:45;97038.88;;;11.71;100.00
39141;BME280;24875;48.436;10.298;2023-02-18T08:25:12;97022.22;;;11.79;100.00
39141;BME280;24875;48.436;10.298;2023-02-18T08:27:38;97029.47;;;11.61;100.00
39141;BME280;24875;48.436;10.298;2023-02-18T08:30:07;97024.50;;;11.82;100.00
39141;BME280;24875;48.436;10.298;2023-02-18T08:32:34;97019.56;;;11.79;100.00
39141;BME280;24875;48.436;10.298;2023-02-18T08:35:01;97024.84;;;11.87;100.00
39141;BME280;24875;48.436;10.298;2023-02-18T08:37:28;97009.31;;;11.92;100.00
39141;BME280;24875;48.436;10.298;2023-02-18T08:39:54;97024.50;;;11.82;100.00
39141;BME280;24875;48.436;10.298;2023-02-18T08:42:21;97022.66;;;11.82;100.00
39141;BME280;24875;48.436;10.298;2023-02-18T08:44:47;97023.00;;;11.87;100.00
39141;BME280;24875;48.436;10.298;2023-02-18T08:47:15;97019.22;;;11.98;100.00
39141;BME280;24875;48.436;10.298;2023-02-18T08:49:42;97021.53;;;12.01;100.00
39141;BME280;24875;48.436;10.298;2023-02-18T08:52:08;97008.66;;;11.82;100.00
39141;BME280;24875;48.436;10.298;2023-02-18T08:54:35;97008.34;;;11.93;100.00
39141;BME280;24875;48.436;10.298;2023-02-18T08:57:01;97011.13;;;11.99;100.00
39141;BME280;24875;48.436;10.298;2023-02-18T08:59:28;97017.56;;;11.97;100.00
39141;BME280;24875;48.436;10.298;2023-02-18T09:01:54;97015.72;;;12.05;100.00
39141;BME280;24875;48.436;10.298;2023-02-18T09:04:22;97002.81;;;12.18;100.00
39141;BME280;24875;48.436;10.298;2023-02-18T09:06:49;97008.94;;;12.18;100.00
39141;BME280;24875;48.436;10.298;2023-02-18T09:09:16;96997.41;;;12.19;100.00
39141;BME280;24875;48.436;10.298;2023-02-18T09:11:43;96997.34;;;12.35;99.54
39141;BME280;24875;48.436;10.298;2023-02-18T09:14:10;96990.94;;;12.22;98.97
39141;BME280;24875;48.436;10.298;2023-02-18T09:16:37;96985.94;;;12.35;98.69
39141;BME280;24875;48.436;10.298;2023-02-18T09:19:05;96984.16;;;12.27;98.61
39141;BME280;24875;48.436;10.298;2023-02-18T09:21:33;96974.69;;;12.41;97.88
39141;BME280;24875;48.436;10.298;2023-02-18T09:23:59;96980.94;;;12.48;97.40
39141;BME280;24875;48.436;10.298;2023-02-18T09:26:26;96971.53;;;12.45;96.95
39141;BME280;24875;48.436;10.298;2023-02-18T09:28:54;96966.66;;;12.65;96.29
39141;BME280;24875;48.436;10.298;2023-02-18T09:31:23;96968.81;;;12.69;96.05
39141;BME280;24875;48.436;10.298;2023-02-18T09:33:53;96966.75;;;12.79;95.90
39141;BME280;24875;48.436;10.298;2023-02-18T09:36:20;96969.41;;;12.79;96.08
39141;BME280;24875;48.436;10.298;2023-02-18T09:38:49;96964.75;;;12.89;95.25
39141;BME280;24875;48.436;10.298;2023-02-18T09:41:26;96952.84;;;12.85;94.55
39141;BME280;24875;48.436;10.298;2023-02-18T09:43:57;96964.38;;;13.00;94.06
39141;BME280;24875;48.436;10.298;2023-02-18T09:46:28;96956.44;;;13.00;94.45
39141;BME280;24875;48.436;10.298;2023-02-18T09:48:57;96955.03;;;13.12;94.11
39141;BME280;24875;48.436;10.298;2023-02-18T09:51:26;96956.75;;;13.05;93.96
39141;BME280;24875;48.436;10.298;2023-02-18T09:53:54;96958.09;;;13.23;93.35
39141;BME280;24875;48.436;10.298;2023-02-18T09:56:25;96957.22;;;13.31;92.27
39141;BME280;24875;48.436;10.298;2023-02-18T09:58:53;96954.56;;;13.31;92.13
39141;BME280;24875;48.436;10.298;2023-02-18T10:01:24;96963.09;;;13.18;91.39
39141;BME280;24875;48.436;10.298;2023-02-18T10:03:54;96959.28;;;13.21;91.09
39141;BME280;24875;48.436;10.298;2023-02-18T10:06:23;96957.59;;;13.28;90.60
39141;BME280;24875;48.436;10.298;2023-02-18T10:08:54;96951.25;;;13.37;89.95
39141;BME280;24875;48.436;10.298;2023-02-18T10:11:23;96945.97;;;13.29;88.84
39141;BME280;24875;48.436;10.298;2023-02-18T10:13:54;96930.56;;;13.32;88.94
39141;BME280;24875;48.436;10.298;2023-02-18T10:16:22;96923.41;;;13.40;88.11
39141;BME280;24875;48.436;10.298;2023-02-18T10:18:52;96937.28;;;13.42;88.24
39141;BME280;24875;48.436;10.298;2023-02-18T10:21:21;96930.38;;;13.34;88.41
39141;BME280;24875;48.436;10.298;2023-02-18T10:23:55;96930.63;;;13.46;88.53
39141;BME280;24875;48.436;10.298;2023-02-18T10:26:24;96927.03;;;13.39;87.40
39141;BME280;24875;48.436;10.298;2023-02-18T10:28:50;96912.94;;;13.47;86.70
39141;BME280;24875;48.436;10.298;2023-02-18T10:31:20;96905.56;;;13.57;87.47
39141;BME280;24875;48.436;10.298;2023-02-18T10:33:52;96913.56;;;13.49;88.75
39141;BME280;24875;48.436;10.298;2023-02-18T10:36:24;96909.88;;;13.36;89.55
39141;BME280;24875;48.436;10.298;2023-02-18T10:39:06;96913.09;;;13.45;87.91
39141;BME280;24875;48.436;10.298;2023-02-18T10:41:44;96905.59;;;13.49;87.66
39141;BME280;24875;48.436;10.298;2023-02-18T10:44:19;96907.84;;;13.38;88.90
39141;BME280;24875;48.436;10.298;2023-02-18T10:46:53;96899.22;;;13.43;88.21
39141;BME280;24875;48.436;10.298;2023-02-18T10:49:46;96887.94;;;13.64;88.07
39141;BME280;24875;48.436;10.298;2023-02-18T10:52:18;96906.22;;;13.37;88.61
39141;BME280;24875;48.436;10.298;2023-02-18T10:54:51;96892.56;;;13.47;88.59
39141;BME280;24875;48.436;10.298;2023-02-18T10:57:20;96890.59;;;13.41;88.59
39141;BME280;24875;48.436;10.298;2023-02-18T10:59:58;96888.34;;;13.53;88.36
39141;BME280;24875;48.436;10.298;2023-02-18T11:02:27;96893.50;;;13.54;87.84
39141;BME280;24875;48.436;10.298;2023-02-18T11:04:56;96896.66;;;13.50;87.40
39141;BME280;24875;48.436;10.298;2023-02-18T11:07:25;96892.38;;;13.49;87.30
39141;BME280;24875;48.436;10.298;2023-02-18T11:09:57;96886.75;;;13.66;86.41
39141;BME280;24875;48.436;10.298;2023-02-18T11:12:28;96899.56;;;13.77;86.06
39141;BME280;24875;48.436;10.298;2023-02-18T11:15:06;96886.72;;;13.89;85.87
39141;BME280;24875;48.436;10.298;2023-02-18T11:17:34;96888.00;;;13.93;84.52
39141;BME280;24875;48.436;10.298;2023-02-18T11:20:20;96899.25;;;14.09;83.75
39141;BME280;24875;48.436;10.298;2023-02-18T11:22:47;96879.84;;;13.94;84.38
39141;BME280;24875;48.436;10.298;2023-02-18T11:25:20;96902.22;;;13.92;83.98
39141;BME280;24875;48.436;10.298;2023-02-18T11:27:50;96898.41;;;13.94;83.65
39141;BME280;24875;48.436;10.298;2023-02-18T11:30:20;96880.91;;;13.71;83.89
39141;BME280;24875;48.436;10.298;2023-02-18T11:32:49;96876.44;;;13.71;84.68
39141;BME280;24875;48.436;10.298;2023-02-18T11:35:18;96877.00;;;13.81;83.79
39141;BME280;24875;48.436;10.298;2023-02-18T11:37:46;96875.97;;;13.68;83.58
39141;BME280;24875;48.436;10.298;2023-02-18T11:40:21;96881.94;;;13.84;83.71
39141;BME280;24875;48.436;10.298;2023-02-18T11:42:49;96862.94;;;13.81;83.66
39141;BME280;24875;48.436;10.298;2023-02-18T11:45:26;96847.06;;;13.95;83.16
39141;BME280;24875;48.436;10.298;2023-02-18T11:47:58;96860.81;;;14.05;83.15
39141;BME280;24875;48.436;10.298;2023-02-18T11:50:25;96856.09;;;13.86;83.09
39141;BME280;24875;48.436;10.298;2023-02-18T11:52:55;96849.94;;;14.00;83.09
39141;BME280;24875;48.436;10.298;2023-02-18T11:55:26;96838.91;;;13.97;83.32
39141;BME280;24875;48.436;10.298;2023-02-18T11:57:56;96839.91;;;13.96;83.04
39141;BME280;24875;48.436;10.298;2023-02-18T12:00:34;96837.03;;;14.19;82.12
39141;BME280;24875;48.436;10.298;2023-02-18T12:03:07;96844.41;;;14.24;82.80
39141;BME280;24875;48.436;10.298;2023-02-18T12:05:39;96840.22;;;14.15;82.40
39141;BME280;24875;48.436;10.298;2023-02-18T12:08:12;96830.88;;;14.19;82.95
39141;BME280;24875;48.436;10.298;2023-02-18T12:10:46;96827.41;;;14.18;83.01
39141;BME280;24875;48.436;10.298;2023-02-18T12:13:22;96831.53;;;14.06;82.76
39141;BME280;24875;48.436;10.298;2023-02-18T12:15:55;96805.47;;;14.10;81.94
39141;BME280;24875;48.436;10.298;2023-02-18T12:18:45;96808.22;;;14.16;82.03
39141;BME280;24875;48.436;10.298;2023-02-18T12:21:25;96811.50;;;14.04;82.09
39141;BME280;24875;48.436;10.298;2023-02-18T12:24:00;96807.13;;;14.11;81.79
39141;BME280;24875;48.436;10.298;2023-02-18T12:26:37;96814.44;;;14.09;81.63
39141;BME280;24875;48.436;10.298;2023-02-18T12:29:30;96807.22;;;14.03;82.02
39141;BME280;24875;48.436;10.298;2023-02-18T12:32:11;96803.56;;;14.04;83.04
39141;BME280;24875;48.436;10.298;2023-02-18T12:34:48;96802.97;;;14.37;83.07
39141;BME280;24875;48.436;10.298;2023-02-18T12:37:45;96800.53;;;14.57;80.29
39141;BME280;24875;48.436;10.298;2023-02-18T12:40:31;96793.53;;;14.70;79.86
39141;BME280;24875;48.436;10.298;2023-02-18T12:43:07;96795.25;;;14.57;79.96
39141;BME280;24875;48.436;10.298;2023-02-18T12:45:58;96791.53;;;14.72;79.59
39141;BME280;24875;48.436;10.298;2023-02-18T12:48:51;96792.47;;;14.64;79.39
39141;BME280;24875;48.436;10.298;2023-02-18T12:51:30;96791.72;;;14.91;78.45
39141;BME280;24875;48.436;10.298;2023-02-18T12:54:24;96802.72;;;14.88;79.14
39141;BME280;24875;48.436;10.298;2023-02-18T12:57:09;96794.09;;;14.86;79.06
39141;BME280;24875;48.436;10.298;2023-02-18T13:00:02;96793.59;;;14.76;78.49